Time;durP1;ratioP1;P1;durP2;ratioP2;P2;SDS_P1;SDS_P2;PMS_P1;PMS_P2;Temp;Humidity;BMP_temperature;BMP_pressure;BME280_temperature;BME280_humidity;BME280_pressure;Samples;Min_cycle;Max_cycle;Signal;HPM_P1;HPM_P2
2022/01/24 00:00:12;;;;;;;45.10;25.77;;;5.60;99.90;;;;;;5030372;28;20632;-58
2022/01/24 00:02:40;;;;;;;51.13;27.07;;;5.60;99.90;;;;;;5029805;28;20236;-57
2022/01/24 00:05:06;;;;;;;49.07;27.40;;;5.60;99.90;;;;;;5029790;28;20182;-57
2022/01/24 00:07:32;;;;;;;54.17;27.77;;;5.60;99.90;;;;;;5012217;28;20651;-57
2022/01/24 00:10:02;;;;;;;42.73;22.83;;;5.50;99.90;;;;;;5030032;28;20177;-57
2022/01/24 00:15:24;;;;;;;51.67;26.67;;;5.60;99.90;;;;;;5030254;28;20240;-57
2022/01/24 00:18:02;;;;;;;51.77;28.57;;;5.60;99.90;;;;;;5022397;28;20182;-57
2022/01/24 00:28:29;;;;;;;41.97;21.93;;;5.60;99.90;;;;;;5034004;28;20181;-58
2022/01/24 00:30:55;;;;;;;42.33;22.40;;;5.60;99.90;;;;;;5033743;28;20166;-58
2022/01/24 00:33:21;;;;;;;32.87;19.63;;;5.60;99.90;;;;;;5033864;28;20174;-58
2022/01/24 00:35:50;;;;;;;33.50;20.43;;;5.60;99.90;;;;;;5027880;28;20236;-58
2022/01/24 00:38:16;;;;;;;40.80;22.70;;;5.60;99.90;;;;;;5013893;28;20171;-58
2022/01/24 00:40:45;;;;;;;39.03;22.33;;;5.60;99.90;;;;;;5019137;28;20171;-58
2022/01/24 00:46:17;;;;;;;48.13;25.03;;;5.60;99.90;;;;;;4967920;28;20654;-58
2022/01/24 00:56:46;;;;;;;42.63;24.57;;;5.60;99.90;;;;;;5033863;28;20188;-58
2022/01/24 00:59:12;;;;;;;44.23;24.97;;;5.60;99.90;;;;;;5033456;28;20170;-58
2022/01/24 01:01:38;;;;;;;42.23;24.77;;;5.60;99.90;;;;;;5032666;28;20534;-58
2022/01/24 01:04:03;;;;;;;46.33;27.70;;;5.60;99.90;;;;;;5033472;28;20687;-58
2022/01/24 01:06:29;;;;;;;44.93;26.43;;;5.70;99.90;;;;;;5033436;28;20524;-56
2022/01/24 01:19:52;;;;;;;42.63;25.73;;;5.60;99.90;;;;;;5028589;28;20236;-57
2022/01/24 01:22:17;;;;;;;47.50;26.73;;;5.60;99.90;;;;;;5033030;28;20182;-56
2022/01/24 01:24:50;;;;;;;45.27;26.33;;;5.70;99.90;;;;;;5032536;28;20502;-57
2022/01/24 01:27:25;;;;;;;46.53;25.90;;;5.70;99.90;;;;;;5032758;28;20212;-56
2022/01/24 01:32:43;;;;;;;37.73;22.07;;;5.70;99.90;;;;;;5032884;28;20181;-57
2022/01/24 01:56:25;;;;;;;44.40;25.60;;;5.70;99.90;;;;;;5032460;28;20335;-56
2022/01/24 01:58:50;;;;;;;43.50;25.37;;;5.70;99.90;;;;;;5031911;28;20174;-55
2022/01/24 02:01:16;;;;;;;42.93;25.97;;;5.70;99.90;;;;;;5032419;28;20633;-55
2022/01/24 02:03:42;;;;;;;45.40;25.17;;;5.70;99.90;;;;;;5032343;28;20181;-55
2022/01/24 02:06:10;;;;;;;48.73;27.47;;;5.70;99.90;;;;;;5032232;28;20256;-56
2022/01/24 02:08:37;;;;;;;39.33;24.27;;;5.60;99.90;;;;;;5032292;28;20177;-56
2022/01/24 02:11:03;;;;;;;42.93;25.53;;;5.60;99.90;;;;;;5031937;28;20674;-55
2022/01/24 02:13:29;;;;;;;41.03;24.73;;;5.60;99.90;;;;;;5031204;28;20411;-55
2022/01/24 02:23:40;;;;;;;38.43;24.03;;;5.60;99.90;;;;;;5018484;28;20177;-55
2022/01/24 02:26:11;;;;;;;41.17;24.27;;;5.70;99.90;;;;;;5031973;28;20174;-55
2022/01/24 02:34:20;;;;;;;43.03;24.37;;;5.70;99.90;;;;;;5032071;28;20212;-56
2022/01/24 02:36:47;;;;;;;42.30;24.70;;;5.70;99.90;;;;;;5031799;28;20190;-56
2022/01/24 02:50:22;;;;;;;39.43;24.93;;;5.70;99.90;;;;;;5031100;28;20181;-55
2022/01/24 02:52:48;;;;;;;32.53;19.37;;;5.70;99.90;;;;;;5025236;28;20188;-56
2022/01/24 02:55:14;;;;;;;35.27;21.27;;;5.70;99.90;;;;;;5023109;28;20519;-55
2022/01/24 02:57:39;;;;;;;37.97;23.60;;;5.80;99.90;;;;;;5019020;28;20174;-55
2022/01/24 03:00:06;;;;;;;37.33;22.87;;;5.70;99.90;;;;;;5031083;28;20600;-57
2022/01/24 03:02:32;;;;;;;36.27;22.93;;;5.70;99.90;;;;;;5031260;28;20170;-57
2022/01/24 03:04:58;;;;;;;34.60;18.90;;;5.70;99.90;;;;;;5029817;28;20232;-56
2022/01/24 03:07:25;;;;;;;35.37;21.07;;;5.80;99.90;;;;;;5017508;28;20637;-56
2022/01/24 03:09:54;;;;;;;45.13;22.60;;;5.80;99.90;;;;;;5025228;28;20277;-56
2022/01/24 03:12:40;;;;;;;38.80;22.60;;;5.80;99.90;;;;;;5030690;28;20174;-56
2022/01/24 03:15:07;;;;;;;42.27;23.13;;;5.70;99.90;;;;;;5030457;28;20226;-56
2022/01/24 03:17:33;;;;;;;39.87;22.40;;;5.70;99.90;;;;;;5030810;28;20170;-57
2022/01/24 03:19:58;;;;;;;36.00;19.97;;;5.70;99.90;;;;;;5030852;28;20177;-57
2022/01/24 03:22:24;;;;;;;35.67;19.40;;;5.70;99.90;;;;;;5030593;28;20170;-57
2022/01/24 03:24:50;;;;;;;37.97;21.80;;;5.80;99.90;;;;;;5030491;28;20189;-57
2022/01/24 03:27:16;;;;;;;37.97;20.87;;;5.70;99.90;;;;;;5030379;28;20189;-58
2022/01/24 03:29:42;;;;;;;33.03;20.10;;;5.70;99.90;;;;;;5030693;28;20665;-58
2022/01/24 03:32:08;;;;;;;34.03;19.53;;;5.80;99.90;;;;;;5029985;28;20177;-57
2022/01/24 03:34:34;;;;;;;39.93;18.33;;;5.70;99.90;;;;;;5030677;28;20288;-58
2022/01/24 03:37:00;;;;;;;34.77;20.10;;;5.80;99.90;;;;;;5030425;28;20182;-57
2022/01/24 03:39:25;;;;;;;40.47;21.37;;;5.80;99.90;;;;;;5030625;28;20196;-58
2022/01/24 03:41:51;;;;;;;38.47;21.13;;;5.80;99.90;;;;;;5027680;28;20613;-57
2022/01/24 03:44:18;;;;;;;42.23;21.87;;;5.80;99.90;;;;;;5009304;28;20178;-57
2022/01/24 03:49:45;;;;;;;39.60;21.23;;;5.80;99.90;;;;;;5010707;28;20616;-57
2022/01/24 03:52:12;;;;;;;38.40;23.03;;;5.80;99.90;;;;;;5010697;28;20191;-57
2022/01/24 03:54:38;;;;;;;38.30;22.33;;;5.80;99.90;;;;;;5026445;28;20198;-58
2022/01/24 03:57:04;;;;;;;39.17;21.37;;;5.80;99.90;;;;;;5029822;28;20177;-58
2022/01/24 03:59:33;;;;;;;45.90;24.13;;;5.80;99.90;;;;;;5030073;28;20198;-57
2022/01/24 04:02:00;;;;;;;41.33;23.30;;;6.30;99.90;;;;;;5030002;28;20208;-57
2022/01/24 04:04:27;;;;;;;47.27;25.10;;;5.80;99.90;;;;;;5029878;28;20174;-57
2022/01/24 04:06:53;;;;;;;45.90;24.87;;;5.80;99.90;;;;;;5029964;28;20169;-55
2022/01/24 04:09:19;;;;;;;45.00;25.27;;;5.80;99.90;;;;;;5030126;28;20696;-55
2022/01/24 04:11:50;;;;;;;42.07;24.47;;;5.80;99.90;;;;;;5030301;28;20176;-54
2022/01/24 04:22:02;;;;;;;41.73;22.70;;;5.70;99.90;;;;;;5029666;28;20200;-55
2022/01/24 04:24:28;;;;;;;41.00;22.93;;;5.80;99.90;;;;;;5030144;28;20576;-56
2022/01/24 04:26:54;;;;;;;38.67;22.37;;;5.70;99.90;;;;;;5012347;28;20182;-56
2022/01/24 04:29:19;;;;;;;38.93;22.20;;;5.70;99.90;;;;;;5029903;28;20253;-56
2022/01/24 04:31:45;;;;;;;43.17;22.70;;;5.70;99.90;;;;;;5029824;28;20174;-57
2022/01/24 04:34:11;;;;;;;43.40;22.77;;;5.70;99.90;;;;;;5029907;28;20622;-56
2022/01/24 04:36:37;;;;;;;44.53;21.33;;;5.80;99.90;;;;;;5011873;28;20644;-55
2022/01/24 04:39:05;;;;;;;39.73;21.60;;;5.70;99.90;;;;;;5029093;28;20178;-55
2022/01/24 04:41:36;;;;;;;36.63;20.80;;;5.70;99.90;;;;;;5012047;28;20185;-55
2022/01/24 04:54:42;;;;;;;37.50;20.20;;;5.70;99.90;;;;;;5029102;28;20194;-56
2022/01/24 04:57:14;;;;;;;38.53;21.13;;;5.70;99.90;;;;;;5029843;28;20166;-56
2022/01/24 04:59:41;;;;;;;39.53;21.13;;;5.70;99.90;;;;;;5029489;28;20177;-59
2022/01/24 05:02:08;;;;;;;40.40;21.53;;;5.70;99.90;;;;;;5029735;28;20253;-55
2022/01/24 05:04:34;;;;;;;40.43;21.10;;;5.70;99.90;;;;;;5029517;28;20640;-56
2022/01/24 05:07:00;;;;;;;36.73;20.70;;;5.70;99.90;;;;;;5024048;28;20182;-55
2022/01/24 05:09:31;;;;;;;38.77;22.30;;;5.70;99.90;;;;;;5002754;28;20170;-56
2022/01/24 05:12:06;;;;;;;38.47;21.43;;;5.70;99.90;;;;;;5013417;28;20657;-56
2022/01/24 05:25:28;;;;;;;40.90;20.70;;;5.70;99.90;;;;;;5022337;28;20185;-56
2022/01/24 05:27:54;;;;;;;34.10;19.70;;;5.70;99.90;;;;;;5013188;28;20170;-55
2022/01/24 05:30:20;;;;;;;35.63;21.10;;;5.70;99.90;;;;;;5013138;28;20678;-56
2022/01/24 05:32:45;;;;;;;37.20;21.23;;;5.70;99.90;;;;;;5021617;28;20189;-56
2022/01/24 05:35:12;;;;;;;40.57;22.13;;;5.70;99.90;;;;;;5032342;28;20209;-56
2022/01/24 05:37:37;;;;;;;38.47;20.67;;;5.70;99.90;;;;;;5032905;28;20232;-56
2022/01/24 05:40:04;;;;;;;36.80;21.70;;;5.70;99.90;;;;;;5032603;28;20633;-55
2022/01/24 05:42:30;;;;;;;34.00;19.53;;;5.70;99.90;;;;;;5032417;28;20170;-57
2022/01/24 05:44:58;;;;;;;35.33;19.37;;;5.70;99.90;;;;;;5012658;28;20175;-56
2022/01/24 05:47:23;;;;;;;35.30;19.73;;;5.70;99.90;;;;;;5012816;28;20193;-57
2022/01/24 05:49:49;;;;;;;41.00;21.30;;;5.70;99.90;;;;;;5025567;28;20186;-56
2022/01/24 05:52:15;;;;;;;31.57;18.70;;;5.70;99.90;;;;;;5031792;28;20185;-56
2022/01/24 05:54:42;;;;;;;33.07;19.33;;;5.70;99.90;;;;;;5031662;28;20670;-58
2022/01/24 05:57:09;;;;;;;32.93;18.10;;;5.70;99.90;;;;;;5032430;28;20166;-57
2022/01/24 05:59:36;;;;;;;36.50;20.27;;;5.70;99.90;;;;;;5031940;28;20594;-57
2022/01/24 06:02:03;;;;;;;35.37;19.23;;;5.70;99.90;;;;;;5032246;28;20320;-57
2022/01/24 06:04:29;;;;;;;33.90;20.27;;;5.70;99.90;;;;;;5032164;28;20213;-57
2022/01/24 06:06:55;;;;;;;34.20;19.67;;;5.70;99.90;;;;;;5031822;28;20636;-57
2022/01/24 06:09:21;;;;;;;33.77;18.87;;;5.70;99.90;;;;;;5032152;28;20178;-57
2022/01/24 06:11:46;;;;;;;33.67;18.23;;;5.70;99.90;;;;;;5032279;28;20247;-57
2022/01/24 06:14:12;;;;;;;33.93;18.60;;;5.70;99.90;;;;;;5032210;28;20726;-57
2022/01/24 06:16:39;;;;;;;30.90;17.30;;;5.70;99.90;;;;;;5028141;28;20223;-57
2022/01/24 06:19:05;;;;;;;31.63;18.20;;;5.70;99.90;;;;;;5028879;28;20223;-58
2022/01/24 06:21:30;;;;;;;39.37;18.47;;;5.70;99.90;;;;;;5031827;28;20193;-57
2022/01/24 06:23:56;;;;;;;32.40;17.93;;;5.60;99.90;;;;;;5031955;28;20536;-56
2022/01/24 06:26:22;;;;;;;37.13;20.83;;;5.60;99.90;;;;;;5031388;28;20799;-56
2022/01/24 06:28:48;;;;;;;37.80;20.40;;;5.60;99.90;;;;;;5031638;28;20201;-56
2022/01/24 06:31:14;;;;;;;33.40;19.93;;;5.60;99.90;;;;;;5031715;28;20220;-56
2022/01/24 06:33:40;;;;;;;38.40;22.30;;;5.70;99.90;;;;;;5030952;28;20513;-56
2022/01/24 06:36:06;;;;;;;35.73;19.80;;;5.60;99.90;;;;;;5031407;28;20210;-56
2022/01/24 06:38:32;;;;;;;35.13;19.77;;;5.60;99.90;;;;;;5013837;28;20602;-56
2022/01/24 06:40:58;;;;;;;33.93;19.47;;;5.70;99.90;;;;;;5031696;28;20174;-56
2022/01/24 06:43:24;;;;;;;34.83;19.03;;;5.60;99.90;;;;;;5031335;28;20227;-55
2022/01/24 06:45:50;;;;;;;36.37;19.73;;;5.60;99.90;;;;;;5031659;28;20178;-55
2022/01/24 06:48:17;;;;;;;35.43;21.20;;;5.70;99.90;;;;;;5031316;28;20645;-56
2022/01/24 06:50:43;;;;;;;32.83;19.10;;;5.60;99.90;;;;;;5030601;28;20664;-56
2022/01/24 06:53:09;;;;;;;35.17;19.43;;;5.60;99.90;;;;;;5013814;28;20264;-56
2022/01/24 06:55:35;;;;;;;34.07;19.83;;;5.60;99.90;;;;;;5031321;28;21059;-57
2022/01/24 06:58:01;;;;;;;38.93;20.90;;;5.60;99.90;;;;;;5031026;28;20170;-57
2022/01/24 07:00:29;;;;;;;31.90;19.60;;;5.60;99.90;;;;;;5031105;28;20178;-57
2022/01/24 07:02:55;;;;;;;34.60;17.80;;;5.70;99.90;;;;;;5029066;28;20186;-57
2022/01/24 07:05:22;;;;;;;31.80;17.87;;;5.60;99.90;;;;;;5011505;28;20250;-57
2022/01/24 07:07:48;;;;;;;32.37;17.67;;;5.60;99.90;;;;;;5023348;28;20177;-57
2022/01/24 07:10:14;;;;;;;35.67;19.17;;;5.60;99.90;;;;;;5030755;28;20174;-57
2022/01/24 07:12:40;;;;;;;35.77;20.63;;;5.60;99.90;;;;;;5013307;28;20181;-57
2022/01/24 07:15:13;;;;;;;35.93;20.27;;;5.60;99.90;;;;;;5030230;28;20674;-56
2022/01/24 07:18:01;;;;;;;32.50;18.80;;;5.60;99.90;;;;;;5030802;28;20170;-57
2022/01/24 07:20:27;;;;;;;32.13;19.00;;;5.60;99.90;;;;;;5030546;28;20201;-55
2022/01/24 07:22:53;;;;;;;38.50;20.37;;;5.60;99.90;;;;;;5030358;28;20251;-55
2022/01/24 07:25:21;;;;;;;45.40;20.80;;;5.60;99.90;;;;;;5030746;28;20659;-55
2022/01/24 07:27:47;;;;;;;35.40;20.23;;;5.60;99.90;;;;;;5029971;28;20201;-57
2022/01/24 07:30:13;;;;;;;35.33;19.63;;;5.60;99.90;;;;;;5030422;28;20629;-57
2022/01/24 07:32:38;;;;;;;33.07;18.13;;;5.60;99.90;;;;;;5030047;28;20178;-57
2022/01/24 07:35:05;;;;;;;36.17;20.53;;;5.50;99.90;;;;;;5041666;28;20641;-57
2022/01/24 07:37:30;;;;;;;35.13;20.17;;;5.50;99.90;;;;;;5047957;28;20180;-57
2022/01/24 07:39:57;;;;;;;38.97;20.37;;;5.60;99.90;;;;;;5024503;28;20531;-56
2022/01/24 07:42:40;;;;;;;34.03;17.80;;;5.50;99.90;;;;;;5030487;28;20178;-56
2022/01/24 07:45:06;;;;;;;35.57;19.50;;;5.60;99.90;;;;;;5027594;28;20747;-61
2022/01/24 07:47:32;;;;;;;35.87;20.03;;;5.50;99.90;;;;;;5030332;28;20295;-58
2022/01/24 07:49:58;;;;;;;36.47;20.70;;;5.50;99.90;;;;;;5030349;28;20276;-59
2022/01/24 07:52:24;;;;;;;35.10;20.03;;;5.50;99.90;;;;;;5030427;28;20169;-58
2022/01/24 07:54:49;;;;;;;32.83;19.23;;;5.50;99.90;;;;;;5030105;28;20201;-58
2022/01/24 07:57:15;;;;;;;36.43;18.90;;;5.50;99.90;;;;;;5030413;28;20177;-58
2022/01/24 07:59:41;;;;;;;38.57;20.60;;;5.50;99.90;;;;;;5030270;28;20173;-58
2022/01/24 08:02:06;;;;;;;36.27;20.07;;;5.50;99.90;;;;;;5029600;28;20189;-58
2022/01/24 08:04:33;;;;;;;35.73;20.10;;;5.50;99.90;;;;;;5028013;28;20185;-58
2022/01/24 08:06:58;;;;;;;41.13;19.90;;;5.50;99.90;;;;;;5021309;28;20601;-57
2022/01/24 08:09:24;;;;;;;33.77;18.93;;;5.50;99.90;;;;;;5010524;28;20257;-57
2022/01/24 08:11:50;;;;;;;35.63;19.33;;;5.50;99.90;;;;;;5025231;28;20277;-57
2022/01/24 08:14:16;;;;;;;37.43;19.77;;;5.60;99.90;;;;;;5029347;28;20621;-57
2022/01/24 08:16:43;;;;;;;39.10;20.27;;;5.50;99.90;;;;;;5031789;28;20241;-59
2022/01/24 08:19:09;;;;;;;35.93;19.57;;;5.60;99.90;;;;;;5029373;28;20490;-57
2022/01/24 08:21:34;;;;;;;34.07;18.67;;;5.50;99.90;;;;;;5030279;28;20181;-57
2022/01/24 08:24:02;;;;;;;34.40;19.53;;;5.40;99.90;;;;;;5029902;28;20538;-56
2022/01/24 08:26:28;;;;;;;33.10;18.40;;;5.40;99.90;;;;;;5017633;28;20205;-56
2022/01/24 08:28:54;;;;;;;37.27;18.47;;;5.40;99.90;;;;;;5029868;28;20209;-56
2022/01/24 08:31:20;;;;;;;40.13;19.40;;;5.40;99.90;;;;;;5029974;28;20201;-55
2022/01/24 08:33:46;;;;;;;35.47;18.33;;;5.50;99.90;;;;;;5009189;28;20181;-58
2022/01/24 08:36:12;;;;;;;39.83;19.47;;;5.50;99.90;;;;;;5015493;28;20206;-59
2022/01/24 08:38:38;;;;;;;32.70;17.90;;;5.50;99.90;;;;;;5029561;28;20265;-56
2022/01/24 08:41:15;;;;;;;30.73;17.60;;;5.50;99.90;;;;;;5029962;28;20185;-57
2022/01/24 08:46:13;;;;;;;39.23;18.43;;;5.50;99.90;;;;;;5033343;28;20174;-56
2022/01/24 08:48:38;;;;;;;35.90;17.83;;;5.50;99.90;;;;;;5033735;28;20174;-56
2022/01/24 08:51:05;;;;;;;36.20;18.27;;;5.50;99.90;;;;;;5029003;28;20171;-56
2022/01/24 08:53:33;;;;;;;35.83;18.07;;;5.40;99.90;;;;;;5029143;28;20174;-59
2022/01/24 08:56:00;;;;;;;36.10;18.60;;;5.40;99.90;;;;;;5033430;28;20232;-57
2022/01/24 08:58:27;;;;;;;34.00;18.07;;;5.40;99.90;;;;;;5033651;28;20170;-57
2022/01/24 09:00:53;;;;;;;36.17;17.90;;;5.40;99.90;;;;;;5033797;28;20540;-57
2022/01/24 09:03:19;;;;;;;39.97;17.90;;;5.40;99.90;;;;;;5021162;28;20174;-56
2022/01/24 09:05:47;;;;;;;37.90;18.77;;;5.40;99.90;;;;;;5032908;28;20178;-58
2022/01/24 09:08:14;;;;;;;39.00;18.47;;;5.40;99.90;;;;;;5025175;28;20235;-57
2022/01/24 09:10:43;;;;;;;34.33;18.07;;;5.40;99.90;;;;;;5015047;28;20459;-57
2022/01/24 09:13:09;;;;;;;45.37;19.77;;;5.40;99.90;;;;;;5033346;28;20198;-58
2022/01/24 09:15:35;;;;;;;46.30;19.90;;;5.40;99.90;;;;;;5032573;28;20308;-56
2022/01/24 09:18:02;;;;;;;39.23;19.47;;;5.50;99.90;;;;;;5032745;28;20331;-56
2022/01/24 09:20:28;;;;;;;39.37;18.07;;;5.50;99.90;;;;;;5032388;28;20178;-57
2022/01/24 09:22:54;;;;;;;41.93;19.70;;;5.40;99.90;;;;;;5031306;28;20639;-56
2022/01/24 09:25:22;;;;;;;37.93;20.27;;;5.40;99.90;;;;;;5031239;28;20185;-57
2022/01/24 09:27:48;;;;;;;41.43;20.60;;;5.50;99.90;;;;;;5031221;28;20170;-57
2022/01/24 09:30:17;;;;;;;39.00;19.80;;;5.50;99.90;;;;;;5031219;28;20636;-57
2022/01/24 09:32:43;;;;;;;42.70;19.03;;;5.40;99.90;;;;;;5031382;28;20198;-57
2022/01/24 09:35:10;;;;;;;42.97;18.93;;;5.50;99.90;;;;;;5030997;28;20213;-57
2022/01/24 09:37:37;;;;;;;46.37;19.83;;;5.40;99.90;;;;;;5032954;28;20482;-57
2022/01/24 09:40:04;;;;;;;40.47;19.37;;;5.50;99.90;;;;;;5032475;28;20236;-57
2022/01/24 09:42:31;;;;;;;43.80;20.60;;;5.50;99.90;;;;;;5032831;28;20265;-57
2022/01/24 09:44:56;;;;;;;44.83;20.20;;;5.50;99.90;;;;;;5032956;28;20173;-58
2022/01/24 09:47:22;;;;;;;42.10;20.30;;;5.40;99.90;;;;;;5032278;28;20224;-58
2022/01/24 09:49:50;;;;;;;41.93;19.50;;;5.40;99.90;;;;;;5032580;28;20184;-56
2022/01/24 09:52:16;;;;;;;42.07;20.60;;;5.40;99.90;;;;;;5032352;28;20688;-56
2022/01/24 09:54:42;;;;;;;41.67;21.07;;;5.40;99.90;;;;;;5031588;28;20227;-56
2022/01/24 09:57:08;;;;;;;46.20;20.67;;;5.50;99.90;;;;;;5032439;28;20182;-56
2022/01/24 09:59:34;;;;;;;43.10;19.97;;;5.50;99.90;;;;;;5014619;28;20174;-57
2022/01/24 10:02:01;;;;;;;37.73;20.17;;;5.50;99.90;;;;;;5026837;28;20197;-56
2022/01/24 10:04:28;;;;;;;41.60;20.07;;;5.50;99.90;;;;;;5020334;28;20177;-56
2022/01/24 10:07:01;;;;;;;40.30;20.30;;;5.60;99.90;;;;;;5014201;28;20185;-57
2022/01/24 10:09:33;;;;;;;41.47;19.40;;;5.50;99.90;;;;;;5030668;28;20692;-57
2022/01/24 10:17:43;;;;;;;43.70;20.27;;;5.40;99.90;;;;;;5032007;28;20186;-56
2022/01/24 10:20:28;;;;;;;46.67;20.20;;;5.40;99.90;;;;;;5031882;28;20227;-56
2022/01/24 10:23:12;;;;;;;38.70;19.63;;;5.40;99.90;;;;;;5011718;28;20244;-60
2022/01/24 10:26:02;;;;;;;42.30;19.53;;;5.50;99.90;;;;;;5031739;28;20177;-58
2022/01/24 10:28:38;;;;;;;37.97;18.97;;;5.50;99.90;;;;;;5014019;28;20182;-57
2022/01/24 10:31:21;;;;;;;36.07;19.37;;;5.40;99.90;;;;;;5031484;28;20184;-58
2022/01/24 10:34:22;;;;;;;37.33;19.30;;;5.50;99.90;;;;;;5013805;28;20170;-57
2022/01/24 10:36:51;;;;;;;41.70;19.93;;;5.50;99.90;;;;;;5013626;28;20283;-56
2022/01/24 10:39:30;;;;;;;39.43;20.03;;;5.60;99.90;;;;;;5031325;28;20182;-56
2022/01/24 10:44:52;;;;;;;39.97;19.70;;;5.50;99.90;;;;;;5011791;28;20588;-57
2022/01/24 10:47:31;;;;;;;46.30;19.67;;;5.50;99.90;;;;;;5025719;28;20178;-57
2022/01/24 10:50:00;;;;;;;39.20;18.93;;;5.50;99.90;;;;;;5030736;28;20632;-57
2022/01/24 10:52:29;;;;;;;42.70;20.50;;;5.50;99.90;;;;;;5021882;28;20186;-57
2022/01/24 10:55:17;;;;;;;35.40;19.23;;;5.50;99.90;;;;;;5029317;28;20205;-57
2022/01/24 10:57:46;;;;;;;42.83;20.67;;;5.50;99.90;;;;;;5026366;28;20281;-57
2022/01/24 11:00:20;;;;;;;42.30;20.40;;;5.50;99.90;;;;;;5024053;28;20170;-57
2022/01/24 11:02:59;;;;;;;40.33;20.47;;;5.50;99.90;;;;;;5015914;28;20181;-57
2022/01/24 11:05:28;;;;;;;39.47;19.93;;;5.60;99.90;;;;;;5026646;28;20636;-57
2022/01/24 11:08:00;;;;;;;40.80;19.50;;;5.60;99.90;;;;;;5030419;28;20178;-58
2022/01/24 11:10:31;;;;;;;41.13;20.17;;;5.50;99.90;;;;;;5010628;28;20180;-57
2022/01/24 11:12:58;;;;;;;41.70;20.07;;;5.50;99.90;;;;;;5039653;28;20169;-57
2022/01/24 11:15:25;;;;;;;39.10;20.33;;;5.50;99.90;;;;;;5046052;28;20229;-57
2022/01/24 11:17:53;;;;;;;39.83;20.20;;;5.50;99.90;;;;;;5030566;28;20197;-57
2022/01/24 11:20:21;;;;;;;36.93;19.83;;;5.50;99.90;;;;;;5030521;28;20178;-57
2022/01/24 11:22:58;;;;;;;39.37;18.67;;;5.50;99.90;;;;;;5010759;28;20178;-57
2022/01/24 11:25:26;;;;;;;47.67;21.40;;;5.40;99.90;;;;;;5011966;28;20658;-56
2022/01/24 11:27:52;;;;;;;38.10;20.10;;;5.50;99.90;;;;;;5023175;28;20174;-56
2022/01/24 11:30:29;;;;;;;40.60;19.03;;;5.50;99.90;;;;;;5029980;28;20174;-57
2022/01/24 11:33:31;;;;;;;47.03;21.10;;;5.50;99.90;;;;;;5029422;28;20178;-57
2022/01/24 11:36:01;;;;;;;41.70;21.03;;;5.60;99.90;;;;;;5017559;28;20402;-57
2022/01/24 11:38:44;;;;;;;42.20;20.50;;;5.60;99.90;;;;;;5007826;28;20210;-57
2022/01/24 11:41:26;;;;;;;48.00;20.40;;;5.50;99.90;;;;;;5024347;28;20281;-55
2022/01/24 11:43:59;;;;;;;41.03;19.60;;;5.40;99.90;;;;;;5015648;28;20277;-55
2022/01/24 11:46:47;;;;;;;39.80;19.53;;;5.40;99.90;;;;;;5030503;28;20228;-55
2022/01/24 11:49:38;;;;;;;47.47;21.27;;;5.50;99.90;;;;;;5028846;28;20173;-56
2022/01/24 11:52:14;;;;;;;42.00;19.97;;;5.50;99.90;;;;;;5012394;28;20178;-55
2022/01/24 11:57:39;;;;;;;42.00;20.90;;;5.50;99.90;;;;;;5030698;28;20202;-56
2022/01/24 12:00:05;;;;;;;47.67;19.83;;;5.60;99.90;;;;;;5026204;28;20182;-56
2022/01/24 12:02:47;;;;;;;45.90;20.00;;;5.70;99.90;;;;;;5030143;28;20178;-56
2022/01/24 12:05:21;;;;;;;39.33;18.03;;;5.70;99.90;;;;;;5029125;28;20268;-56
2022/01/24 12:07:52;;;;;;;49.93;19.20;;;5.60;99.90;;;;;;5030073;28;20215;-56
2022/01/24 12:10:24;;;;;;;46.70;19.33;;;5.60;99.90;;;;;;5029682;28;20236;-56
2022/01/24 12:12:51;;;;;;;44.63;19.80;;;5.50;99.90;;;;;;5012534;28;20177;-56
2022/01/24 12:15:39;;;;;;;42.30;18.97;;;5.60;99.90;;;;;;5029444;28;20221;-56
2022/01/24 12:18:07;;;;;;;40.63;19.33;;;5.50;99.90;;;;;;5024964;28;20200;-56
2022/01/24 12:20:35;;;;;;;44.60;22.80;;;5.50;99.90;;;;;;5016143;28;20402;-56
2022/01/24 12:23:16;;;;;;;42.20;21.10;;;5.50;99.90;;;;;;5033151;28;20682;-57
2022/01/24 12:26:05;;;;;;;39.47;19.53;;;5.50;99.90;;;;;;5028651;28;20181;-57
2022/01/24 12:28:34;;;;;;;41.40;18.90;;;5.50;99.90;;;;;;5033637;28;20581;-57
2022/01/24 12:31:07;;;;;;;46.43;20.77;;;5.50;99.90;;;;;;5033597;28;20485;-57
2022/01/24 12:33:39;;;;;;;43.53;19.30;;;5.50;99.90;;;;;;5029488;28;20269;-56
2022/01/24 12:36:08;;;;;;;46.43;21.73;;;5.50;99.90;;;;;;5033141;28;20286;-56
2022/01/24 12:38:44;;;;;;;44.37;20.57;;;5.60;99.90;;;;;;5033657;28;20178;-56
2022/01/24 12:41:36;;;;;;;44.73;20.43;;;5.60;99.90;;;;;;5032683;28;20189;-57
2022/01/24 12:46:30;;;;;;;46.37;20.87;;;5.60;99.90;;;;;;5033121;28;20182;-57
2022/01/24 12:48:57;;;;;;;48.70;21.60;;;5.60;99.90;;;;;;5029044;28;20261;-57
2022/01/24 12:51:28;;;;;;;44.97;21.77;;;5.50;99.90;;;;;;5019613;28;20247;-57
2022/01/24 12:53:55;;;;;;;40.27;19.87;;;5.60;99.90;;;;;;5020917;28;20190;-57
2022/01/24 12:56:26;;;;;;;55.33;21.23;;;5.60;99.90;;;;;;5032731;28;20218;-57
2022/01/24 12:58:52;;;;;;;43.77;21.20;;;5.60;99.90;;;;;;5032771;28;20177;-57
2022/01/24 13:01:22;;;;;;;44.00;20.67;;;5.60;99.90;;;;;;5021269;28;20186;-57
2022/01/24 13:03:52;;;;;;;40.83;20.63;;;5.70;99.90;;;;;;5023152;28;20548;-58
2022/01/24 13:06:19;;;;;;;49.90;25.05;;;5.70;99.90;;;;;;5014740;28;20823;-57
2022/01/24 13:09:13;;;;;;;45.30;20.50;;;5.70;99.90;;;;;;5032666;28;20272;-57
2022/01/24 13:11:52;;;;;;;40.40;20.57;;;5.70;99.90;;;;;;5032594;28;20241;-57
2022/01/24 13:25:25;;;;;;;41.97;19.77;;;5.60;99.90;;;;;;5030185;28;20220;-57
2022/01/24 13:27:56;;;;;;;47.07;20.47;;;5.70;99.90;;;;;;5024293;28;20600;-57
2022/01/24 13:30:32;;;;;;;42.77;20.63;;;5.50;99.90;;;;;;5028079;28;20224;-58
2022/01/24 13:33:06;;;;;;;49.80;22.07;;;5.40;99.90;;;;;;5031667;28;20184;-57
2022/01/24 13:35:42;;;;;;;49.37;22.17;;;5.40;99.90;;;;;;5032302;28;20205;-57
2022/01/24 13:38:15;;;;;;;47.63;23.33;;;5.50;99.90;;;;;;5028391;28;20185;-57
2022/01/24 13:40:57;;;;;;;41.30;20.33;;;5.50;99.90;;;;;;5020987;28;20174;-56
2022/01/24 13:43:30;;;;;;;40.90;20.50;;;5.50;99.90;;;;;;4997760;28;20226;-59
2022/01/24 13:45:56;;;;;;;40.47;20.87;;;5.60;99.90;;;;;;5027183;28;20179;-59
2022/01/24 13:48:24;;;;;;;41.70;21.10;;;5.60;99.90;;;;;;5032360;28;20174;-59
2022/01/24 13:50:59;;;;;;;41.33;20.80;;;5.60;99.90;;;;;;5032097;28;20269;-59
2022/01/24 13:53:36;;;;;;;37.43;19.63;;;5.50;99.90;;;;;;5032180;28;20581;-59
2022/01/24 13:56:27;;;;;;;42.23;20.30;;;5.50;99.90;;;;;;5031741;28;20302;-59
2022/01/24 13:59:18;;;;;;;45.27;21.73;;;5.50;99.90;;;;;;5031724;28;20256;-58
2022/01/24 14:02:04;;;;;;;47.83;22.53;;;5.50;99.90;;;;;;5030495;28;20177;-58
2022/01/24 14:04:40;;;;;;;52.03;22.23;;;5.50;99.90;;;;;;5014410;28;20205;-59
2022/01/24 14:07:16;;;;;;;48.53;22.50;;;5.50;99.90;;;;;;5032056;28;20227;-59
2022/01/24 14:09:49;;;;;;;46.33;22.63;;;5.50;99.90;;;;;;5012440;28;20171;-59
2022/01/24 14:12:25;;;;;;;49.63;21.27;;;5.40;99.90;;;;;;5012348;28;20178;-59
2022/01/24 14:15:05;;;;;;;41.83;19.70;;;5.40;99.90;;;;;;4997981;28;20218;-59
2022/01/24 14:17:47;;;;;;;43.90;21.93;;;5.30;99.90;;;;;;5010190;28;20184;-59
2022/01/24 14:20:18;;;;;;;42.43;20.33;;;5.30;99.90;;;;;;5012139;28;20186;-59
2022/01/24 14:22:51;;;;;;;41.03;20.67;;;5.40;99.90;;;;;;5011870;28;20214;-59
2022/01/24 14:25:36;;;;;;;35.97;19.03;;;5.50;99.90;;;;;;5010829;28;20179;-57
2022/01/24 14:28:09;;;;;;;38.67;20.37;;;5.30;99.90;;;;;;5008753;28;20206;-57
2022/01/24 14:30:43;;;;;;;38.60;19.63;;;5.30;99.90;;;;;;5011937;28;20254;-73
2022/01/24 14:33:15;;;;;;;48.93;21.50;;;5.30;99.90;;;;;;5011716;28;20178;-68
2022/01/24 14:36:00;;;;;;;46.27;20.00;;;5.30;99.90;;;;;;5009318;28;20210;-69
2022/01/24 14:38:43;;;;;;;40.10;19.23;;;5.40;99.90;;;;;;5007744;28;20181;-69
2022/01/24 14:41:15;;;;;;;42.70;20.00;;;5.40;99.90;;;;;;5011530;28;20166;-68
2022/01/24 14:46:32;;;;;;;39.17;18.00;;;5.40;99.90;;;;;;5009226;28;20248;-69
2022/01/24 14:49:02;;;;;;;42.37;20.83;;;5.40;99.90;;;;;;5007417;28;20233;-69
2022/01/24 14:51:31;;;;;;;45.60;21.10;;;5.40;99.90;;;;;;5004562;28;20179;-69
2022/01/24 14:54:00;;;;;;;43.47;21.60;;;5.50;99.90;;;;;;5009785;28;20186;-69
2022/01/24 14:56:28;;;;;;;42.87;20.73;;;5.40;99.90;;;;;;5009237;28;20220;-69
2022/01/24 14:58:54;;;;;;;47.80;21.63;;;5.30;99.90;;;;;;5011655;28;20204;-68
2022/01/24 15:01:21;;;;;;;45.70;23.87;;;5.40;99.90;;;;;;5011105;28;20182;-68
2022/01/24 15:03:47;;;;;;;48.47;23.27;;;5.40;99.90;;;;;;5011072;28;20182;-68
2022/01/24 15:06:14;;;;;;;48.53;23.43;;;5.50;99.90;;;;;;5009903;28;20249;-68
2022/01/24 15:08:43;;;;;;;52.37;23.57;;;5.50;99.90;;;;;;5008140;28;20616;-68
2022/01/24 15:11:15;;;;;;;46.87;23.63;;;5.50;99.90;;;;;;5010611;28;20182;-68